sensor_id;sensor_type;location;lat;lon;timestamp;pressure;altitude;pressure_sealevel;temperature;humidity
8051;BME280;4068;42.158;24.732;2022-07-10T00:00:35;99276.13;;;20.31;89.00
8051;BME280;4068;42.158;24.732;2022-07-10T00:03:01;99291.69;;;20.36;89.57
8051;BME280;4068;42.158;24.732;2022-07-10T00:05:28;99290.66;;;20.37;89.66
8051;BME280;4068;42.158;24.732;2022-07-10T00:07:53;99291.81;;;20.28;90.79
8051;BME280;4068;42.158;24.732;2022-07-10T00:10:20;99284.31;;;20.23;90.96
8051;BME280;4068;42.158;24.732;2022-07-10T00:12:46;99295.06;;;20.23;91.14
8051;BME280;4068;42.158;24.732;2022-07-10T00:15:12;99286.19;;;20.23;91.39
8051;BME280;4068;42.158;24.732;2022-07-10T00:17:38;99274.94;;;20.19;91.49
8051;BME280;4068;42.158;24.732;2022-07-10T00:20:05;99281.38;;;20.18;91.99
8051;BME280;4068;42.158;24.732;2022-07-10T00:22:33;99283.41;;;20.16;92.30
8051;BME280;4068;42.158;24.732;2022-07-10T00:25:00;99281.38;;;20.18;92.01
8051;BME280;4068;42.158;24.732;2022-07-10T00:27:26;99273.75;;;20.22;91.91
8051;BME280;4068;42.158;24.732;2022-07-10T00:29:51;99273.94;;;20.20;92.27
8051;BME280;4068;42.158;24.732;2022-07-10T00:32:17;99270.41;;;20.20;92.05
8051;BME280;4068;42.158;24.732;2022-07-10T00:34:42;99268.09;;;20.16;92.40
8051;BME280;4068;42.158;24.732;2022-07-10T00:37:08;99265.78;;;20.13;91.97
8051;BME280;4068;42.158;24.732;2022-07-10T00:39:33;99268.88;;;20.10;92.37
8051;BME280;4068;42.158;24.732;2022-07-10T00:42:13;99255.88;;;20.14;91.94
8051;BME280;4068;42.158;24.732;2022-07-10T00:44:42;99264.13;;;20.12;91.92
8051;BME280;4068;42.158;24.732;2022-07-10T00:47:09;99262.91;;;20.15;91.95
8051;BME280;4068;42.158;24.732;2022-07-10T00:49:36;99260.00;;;20.16;90.68
8051;BME280;4068;42.158;24.732;2022-07-10T00:52:04;99254.00;;;20.14;90.24
8051;BME280;4068;42.158;24.732;2022-07-10T00:54:32;99224.91;;;20.03;89.90
8051;BME280;4068;42.158;24.732;2022-07-10T00:56:59;99250.72;;;20.19;89.67
8051;BME280;4068;42.158;24.732;2022-07-10T00:59:25;99248.28;;;20.24;89.03
8051;BME280;4068;42.158;24.732;2022-07-10T01:01:51;99241.03;;;20.25;88.54
8051;BME280;4068;42.158;24.732;2022-07-10T01:04:17;99239.63;;;20.29;87.87
8051;BME280;4068;42.158;24.732;2022-07-10T01:06:43;99243.34;;;20.28;87.56
8051;BME280;4068;42.158;24.732;2022-07-10T01:09:08;99240.22;;;20.24;87.90
8051;BME280;4068;42.158;24.732;2022-07-10T01:11:34;99217.41;;;20.20;87.07
8051;BME280;4068;42.158;24.732;2022-07-10T01:14:02;99230.53;;;20.30;87.45
8051;BME280;4068;42.158;24.732;2022-07-10T01:16:28;99237.59;;;20.31;86.66
8051;BME280;4068;42.158;24.732;2022-07-10T01:18:55;99225.38;;;20.35;86.57
8051;BME280;4068;42.158;24.732;2022-07-10T01:21:31;99234.50;;;20.34;86.51
8051;BME280;4068;42.158;24.732;2022-07-10T01:23:58;99231.69;;;20.42;85.41
8051;BME280;4068;42.158;24.732;2022-07-10T01:26:24;99233.97;;;20.45;85.83
8051;BME280;4068;42.158;24.732;2022-07-10T01:28:52;99213.16;;;20.32;85.17
8051;BME280;4068;42.158;24.732;2022-07-10T01:31:36;99232.56;;;20.49;84.80
8051;BME280;4068;42.158;24.732;2022-07-10T01:34:05;99242.28;;;20.50;85.10
8051;BME280;4068;42.158;24.732;2022-07-10T01:36:31;99241.06;;;20.53;84.93
8051;BME280;4068;42.158;24.732;2022-07-10T01:38:58;99218.38;;;20.41;84.61
8051;BME280;4068;42.158;24.732;2022-07-10T01:41:24;99237.78;;;20.58;84.64
8051;BME280;4068;42.158;24.732;2022-07-10T01:43:50;99241.31;;;20.58;84.65
8051;BME280;4068;42.158;24.732;2022-07-10T01:46:16;99236.34;;;20.62;84.16
8051;BME280;4068;42.158;24.732;2022-07-10T01:48:42;99225.78;;;20.60;84.43
8051;BME280;4068;42.158;24.732;2022-07-10T01:51:09;99223.28;;;20.59;84.66
8051;BME280;4068;42.158;24.732;2022-07-10T01:53:35;99190.63;;;20.40;85.06
8051;BME280;4068;42.158;24.732;2022-07-10T01:56:03;99213.31;;;20.52;85.17
8051;BME280;4068;42.158;24.732;2022-07-10T01:58:30;99208.13;;;20.51;85.47
8051;BME280;4068;42.158;24.732;2022-07-10T02:00:55;99204.91;;;20.41;85.82
8051;BME280;4068;42.158;24.732;2022-07-10T02:03:20;99196.13;;;20.25;86.16
8051;BME280;4068;42.158;24.732;2022-07-10T02:06:05;99207.53;;;20.27;86.81
8051;BME280;4068;42.158;24.732;2022-07-10T02:08:30;99202.47;;;20.17;87.10
8051;BME280;4068;42.158;24.732;2022-07-10T02:10:55;99211.44;;;20.25;86.33
8051;BME280;4068;42.158;24.732;2022-07-10T02:13:21;99199.16;;;20.15;86.60
8051;BME280;4068;42.158;24.732;2022-07-10T02:15:47;99197.22;;;20.09;86.54
8051;BME280;4068;42.158;24.732;2022-07-10T02:18:13;99205.56;;;20.14;86.25
8051;BME280;4068;42.158;24.732;2022-07-10T02:20:38;99207.09;;;20.02;87.51
8051;BME280;4068;42.158;24.732;2022-07-10T02:23:04;99204.16;;;19.97;87.24
8051;BME280;4068;42.158;24.732;2022-07-10T02:25:29;99202.81;;;19.86;88.64
8051;BME280;4068;42.158;24.732;2022-07-10T02:27:54;99216.66;;;19.83;88.54
8051;BME280;4068;42.158;24.732;2022-07-10T02:30:20;99207.75;;;19.67;89.43
8051;BME280;4068;42.158;24.732;2022-07-10T02:32:45;99202.69;;;19.58;89.34
8051;BME280;4068;42.158;24.732;2022-07-10T02:35:11;99203.66;;;19.50;89.99
8051;BME280;4068;42.158;24.732;2022-07-10T02:37:36;99203.94;;;19.40;89.34
8051;BME280;4068;42.158;24.732;2022-07-10T02:40:02;99204.34;;;19.37;90.41
8051;BME280;4068;42.158;24.732;2022-07-10T02:42:27;99213.78;;;19.33;90.17
8051;BME280;4068;42.158;24.732;2022-07-10T02:44:53;99198.81;;;19.09;92.02
8051;BME280;4068;42.158;24.732;2022-07-10T02:47:18;99213.56;;;19.13;91.44
8051;BME280;4068;42.158;24.732;2022-07-10T02:49:44;99222.19;;;19.08;92.22
8051;BME280;4068;42.158;24.732;2022-07-10T02:52:09;99218.19;;;19.04;91.80
8051;BME280;4068;42.158;24.732;2022-07-10T02:54:35;99213.34;;;19.00;92.62
8051;BME280;4068;42.158;24.732;2022-07-10T02:57:01;99214.31;;;18.92;92.91
8051;BME280;4068;42.158;24.732;2022-07-10T02:59:26;99215.59;;;18.96;92.35
8051;BME280;4068;42.158;24.732;2022-07-10T03:01:52;99218.91;;;18.98;92.84
8051;BME280;4068;42.158;24.732;2022-07-10T03:04:17;99233.84;;;19.01;91.51
8051;BME280;4068;42.158;24.732;2022-07-10T03:06:43;99228.22;;;18.95;92.14
8051;BME280;4068;42.158;24.732;2022-07-10T03:09:08;99234.50;;;19.03;91.78
8051;BME280;4068;42.158;24.732;2022-07-10T03:11:33;99234.50;;;19.03;91.89
8051;BME280;4068;42.158;24.732;2022-07-10T03:13:59;99232.44;;;19.05;91.77
8051;BME280;4068;42.158;24.732;2022-07-10T03:16:24;99228.94;;;19.04;91.71
8051;BME280;4068;42.158;24.732;2022-07-10T03:18:49;99229.59;;;19.06;91.75
8051;BME280;4068;42.158;24.732;2022-07-10T03:21:15;99232.56;;;19.11;92.47
8051;BME280;4068;42.158;24.732;2022-07-10T03:23:40;99205.59;;;18.90;91.83
8051;BME280;4068;42.158;24.732;2022-07-10T03:26:06;99201.97;;;18.97;91.80
8051;BME280;4068;42.158;24.732;2022-07-10T03:28:31;99224.31;;;19.13;91.29
8051;BME280;4068;42.158;24.732;2022-07-10T03:30:57;99227.44;;;19.17;92.29
8051;BME280;4068;42.158;24.732;2022-07-10T03:33:22;99204.53;;;19.21;91.31
8051;BME280;4068;42.158;24.732;2022-07-10T03:35:48;99222.81;;;19.25;91.24
8051;BME280;4068;42.158;24.732;2022-07-10T03:38:13;99219.56;;;19.30;91.45
8051;BME280;4068;42.158;24.732;2022-07-10T03:40:39;99191.75;;;19.23;91.41
8051;BME280;4068;42.158;24.732;2022-07-10T03:43:04;99206.16;;;19.37;91.37
8051;BME280;4068;42.158;24.732;2022-07-10T03:45:30;99205.81;;;19.40;91.51
8051;BME280;4068;42.158;24.732;2022-07-10T03:47:55;99198.56;;;19.40;91.96
8051;BME280;4068;42.158;24.732;2022-07-10T03:50:21;99186.72;;;19.35;92.00
8051;BME280;4068;42.158;24.732;2022-07-10T03:52:46;99195.31;;;19.45;91.81
8051;BME280;4068;42.158;24.732;2022-07-10T03:55:12;99197.69;;;19.55;91.34
8051;BME280;4068;42.158;24.732;2022-07-10T03:57:37;99166.00;;;19.50;91.36
8051;BME280;4068;42.158;24.732;2022-07-10T04:00:19;99159.41;;;19.53;91.14
8051;BME280;4068;42.158;24.732;2022-07-10T04:02:47;99200.50;;;19.83;90.93
8051;BME280;4068;42.158;24.732;2022-07-10T04:05:13;99205.75;;;19.91;90.17
8051;BME280;4068;42.158;24.732;2022-07-10T04:07:39;99201.97;;;20.07;89.11
8051;BME280;4068;42.158;24.732;2022-07-10T04:10:05;99185.19;;;20.05;88.24
8051;BME280;4068;42.158;24.732;2022-07-10T04:12:30;99177.81;;;20.14;87.02
8051;BME280;4068;42.158;24.732;2022-07-10T04:14:56;99202.44;;;20.39;86.89
8051;BME280;4068;42.158;24.732;2022-07-10T04:17:21;99206.94;;;20.60;86.01
8051;BME280;4068;42.158;24.732;2022-07-10T04:19:47;99201.78;;;20.65;85.52
8051;BME280;4068;42.158;24.732;2022-07-10T04:22:12;99192.63;;;20.88;84.69
8051;BME280;4068;42.158;24.732;2022-07-10T04:24:38;99172.72;;;20.89;83.72
8051;BME280;4068;42.158;24.732;2022-07-10T04:27:04;99183.19;;;21.06;83.08
8051;BME280;4068;42.158;24.732;2022-07-10T04:29:29;99208.38;;;21.33;82.53
8051;BME280;4068;42.158;24.732;2022-07-10T04:31:55;99210.53;;;21.51;80.14
8051;BME280;4068;42.158;24.732;2022-07-10T04:34:20;99208.09;;;21.76;79.83
8051;BME280;4068;42.158;24.732;2022-07-10T04:36:46;99187.34;;;21.70;78.98
8051;BME280;4068;42.158;24.732;2022-07-10T04:39:11;99206.47;;;21.75;79.11
8051;BME280;4068;42.158;24.732;2022-07-10T04:41:36;99205.41;;;21.76;78.73
8051;BME280;4068;42.158;24.732;2022-07-10T04:44:02;99197.94;;;21.65;78.44
8051;BME280;4068;42.158;24.732;2022-07-10T04:46:28;99213.06;;;21.66;78.60
8051;BME280;4068;42.158;24.732;2022-07-10T04:48:53;99219.09;;;21.61;78.67
8051;BME280;4068;42.158;24.732;2022-07-10T04:51:19;99196.66;;;21.54;78.94
8051;BME280;4068;42.158;24.732;2022-07-10T04:53:44;99193.50;;;21.50;79.47
8051;BME280;4068;42.158;24.732;2022-07-10T04:56:10;99215.38;;;21.62;79.10
8051;BME280;4068;42.158;24.732;2022-07-10T04:58:35;99196.44;;;21.55;79.93
8051;BME280;4068;42.158;24.732;2022-07-10T05:01:01;99218.69;;;21.71;79.53
8051;BME280;4068;42.158;24.732;2022-07-10T05:03:30;99223.22;;;21.57;79.91
8051;BME280;4068;42.158;24.732;2022-07-10T05:05:55;99221.81;;;21.75;79.79
8051;BME280;4068;42.158;24.732;2022-07-10T05:08:20;99224.34;;;21.96;79.11
8051;BME280;4068;42.158;24.732;2022-07-10T05:10:46;99209.41;;;22.14;77.92
8051;BME280;4068;42.158;24.732;2022-07-10T05:13:11;99230.44;;;22.45;77.36
8051;BME280;4068;42.158;24.732;2022-07-10T05:15:37;99242.88;;;22.60;76.83
8051;BME280;4068;42.158;24.732;2022-07-10T05:18:03;99234.13;;;22.78;75.92
8051;BME280;4068;42.158;24.732;2022-07-10T05:20:29;99246.59;;;22.92;74.71
8051;BME280;4068;42.158;24.732;2022-07-10T05:22:55;99230.56;;;22.90;74.90
8051;BME280;4068;42.158;24.732;2022-07-10T05:25:20;99220.34;;;23.06;74.52
8051;BME280;4068;42.158;24.732;2022-07-10T05:27:46;99223.22;;;23.04;74.49
8051;BME280;4068;42.158;24.732;2022-07-10T05:30:11;99215.94;;;23.18;74.32
8051;BME280;4068;42.158;24.732;2022-07-10T05:32:46;99233.66;;;23.59;72.74
8051;BME280;4068;42.158;24.732;2022-07-10T05:35:13;99224.09;;;23.95;71.85
8051;BME280;4068;42.158;24.732;2022-07-10T05:37:38;99214.44;;;24.06;70.16
8051;BME280;4068;42.158;24.732;2022-07-10T05:40:04;99217.97;;;24.07;70.57
8051;BME280;4068;42.158;24.732;2022-07-10T05:42:30;99212.47;;;24.20;70.18
8051;BME280;4068;42.158;24.732;2022-07-10T05:44:56;99215.50;;;24.56;68.51
8051;BME280;4068;42.158;24.732;2022-07-10T05:47:21;99222.09;;;24.67;67.78
8051;BME280;4068;42.158;24.732;2022-07-10T05:49:46;99223.53;;;24.69;68.18
8051;BME280;4068;42.158;24.732;2022-07-10T05:52:12;99223.38;;;25.01;66.96
8051;BME280;4068;42.158;24.732;2022-07-10T05:54:38;99211.38;;;24.97;66.00
8051;BME280;4068;42.158;24.732;2022-07-10T05:57:03;99204.88;;;24.98;66.68
8051;BME280;4068;42.158;24.732;2022-07-10T05:59:30;99207.91;;;25.08;65.98
8051;BME280;4068;42.158;24.732;2022-07-10T06:01:57;99236.84;;;25.33;65.79
8051;BME280;4068;42.158;24.732;2022-07-10T06:04:23;99231.69;;;25.43;65.70
8051;BME280;4068;42.158;24.732;2022-07-10T06:06:48;99225.91;;;25.40;65.98
8051;BME280;4068;42.158;24.732;2022-07-10T06:09:14;99204.09;;;25.28;65.17
8051;BME280;4068;42.158;24.732;2022-07-10T06:11:39;99236.13;;;25.01;66.47
8051;BME280;4068;42.158;24.732;2022-07-10T06:14:07;99230.78;;;25.12;66.16
8051;BME280;4068;42.158;24.732;2022-07-10T06:16:32;99225.34;;;25.12;66.33
8051;BME280;4068;42.158;24.732;2022-07-10T06:18:57;99234.78;;;25.47;66.38
8051;BME280;4068;42.158;24.732;2022-07-10T06:21:23;99226.03;;;25.45;65.71
8051;BME280;4068;42.158;24.732;2022-07-10T06:23:48;99230.38;;;25.64;65.57
8051;BME280;4068;42.158;24.732;2022-07-10T06:26:14;99227.53;;;25.90;65.04
8051;BME280;4068;42.158;24.732;2022-07-10T06:28:39;99229.53;;;25.94;63.83
8051;BME280;4068;42.158;24.732;2022-07-10T06:31:05;99209.34;;;25.90;64.05
8051;BME280;4068;42.158;24.732;2022-07-10T06:33:31;99216.91;;;26.00;63.36
8051;BME280;4068;42.158;24.732;2022-07-10T06:35:57;99223.34;;;26.06;63.46
8051;BME280;4068;42.158;24.732;2022-07-10T06:38:23;99229.50;;;26.13;62.96
8051;BME280;4068;42.158;24.732;2022-07-10T06:40:49;99220.84;;;26.04;63.88
8051;BME280;4068;42.158;24.732;2022-07-10T06:43:15;99229.75;;;26.23;63.35
8051;BME280;4068;42.158;24.732;2022-07-10T06:45:40;99234.72;;;26.62;62.83
8051;BME280;4068;42.158;24.732;2022-07-10T06:48:07;99245.06;;;26.95;61.25
8051;BME280;4068;42.158;24.732;2022-07-10T06:50:32;99227.72;;;27.13;60.36
8051;BME280;4068;42.158;24.732;2022-07-10T06:53:00;99239.19;;;27.27;60.58
8051;BME280;4068;42.158;24.732;2022-07-10T06:55:26;99238.84;;;27.12;59.51
8051;BME280;4068;42.158;24.732;2022-07-10T06:57:52;99217.69;;;27.14;59.90
8051;BME280;4068;42.158;24.732;2022-07-10T07:00:18;99245.22;;;27.41;59.79
8051;BME280;4068;42.158;24.732;2022-07-10T07:02:44;99237.78;;;27.65;58.39
8051;BME280;4068;42.158;24.732;2022-07-10T07:05:10;99236.13;;;27.64;58.70
8051;BME280;4068;42.158;24.732;2022-07-10T07:07:36;99219.22;;;27.62;58.59
8051;BME280;4068;42.158;24.732;2022-07-10T07:10:03;99228.81;;;28.11;57.42
8051;BME280;4068;42.158;24.732;2022-07-10T07:12:28;99233.84;;;28.53;56.08
8051;BME280;4068;42.158;24.732;2022-07-10T07:14:54;99217.84;;;28.73;55.41
8051;BME280;4068;42.158;24.732;2022-07-10T07:17:19;99223.28;;;28.73;55.57
8051;BME280;4068;42.158;24.732;2022-07-10T07:19:50;99228.38;;;28.87;55.20
8051;BME280;4068;42.158;24.732;2022-07-10T07:22:35;99220.09;;;28.82;55.18
8051;BME280;4068;42.158;24.732;2022-07-10T07:25:19;99223.50;;;28.89;54.80
8051;BME280;4068;42.158;24.732;2022-07-10T07:27:44;99214.00;;;28.74;55.09
8051;BME280;4068;42.158;24.732;2022-07-10T07:30:14;99226.75;;;28.69;55.02
8051;BME280;4068;42.158;24.732;2022-07-10T07:32:40;99225.72;;;28.92;55.92
8051;BME280;4068;42.158;24.732;2022-07-10T07:35:07;99219.75;;;28.95;55.66
8051;BME280;4068;42.158;24.732;2022-07-10T07:40:06;99204.22;;;28.39;56.17
8051;BME280;4068;42.158;24.732;2022-07-10T07:42:31;99215.38;;;28.21;57.18
8051;BME280;4068;42.158;24.732;2022-07-10T07:44:57;99200.69;;;27.93;56.98
8051;BME280;4068;42.158;24.732;2022-07-10T07:47:22;99220.47;;;28.17;56.42
8051;BME280;4068;42.158;24.732;2022-07-10T07:49:48;99214.47;;;28.66;56.48
8051;BME280;4068;42.158;24.732;2022-07-10T07:52:13;99220.56;;;28.73;55.55
8051;BME280;4068;42.158;24.732;2022-07-10T07:54:39;99194.09;;;28.74;54.86
8051;BME280;4068;42.158;24.732;2022-07-10T07:57:05;99204.25;;;28.79;53.54
8051;BME280;4068;42.158;24.732;2022-07-10T07:59:30;99215.03;;;29.30;53.96
8051;BME280;4068;42.158;24.732;2022-07-10T08:01:56;99215.66;;;29.86;51.32
8051;BME280;4068;42.158;24.732;2022-07-10T08:04:21;99212.75;;;29.98;51.73
8051;BME280;4068;42.158;24.732;2022-07-10T08:06:47;99211.63;;;30.26;51.47
8051;BME280;4068;42.158;24.732;2022-07-10T08:09:12;99212.00;;;30.40;50.86
8051;BME280;4068;42.158;24.732;2022-07-10T08:11:38;99215.66;;;30.51;50.83
8051;BME280;4068;42.158;24.732;2022-07-10T08:14:03;99207.06;;;30.37;49.83
8051;BME280;4068;42.158;24.732;2022-07-10T08:16:29;99216.03;;;30.33;50.41
8051;BME280;4068;42.158;24.732;2022-07-10T08:18:54;99220.03;;;30.20;50.08
8051;BME280;4068;42.158;24.732;2022-07-10T08:21:19;99214.94;;;29.96;50.49
8051;BME280;4068;42.158;24.732;2022-07-10T08:23:45;99211.97;;;30.03;50.45
8051;BME280;4068;42.158;24.732;2022-07-10T08:26:11;99217.94;;;29.94;51.84
8051;BME280;4068;42.158;24.732;2022-07-10T08:28:36;99186.34;;;29.82;50.78
8051;BME280;4068;42.158;24.732;2022-07-10T08:31:02;99210.53;;;29.95;50.20
8051;BME280;4068;42.158;24.732;2022-07-10T08:36:13;99218.44;;;29.91;50.98
8051;BME280;4068;42.158;24.732;2022-07-10T08:38:38;99225.19;;;29.84;50.23
8051;BME280;4068;42.158;24.732;2022-07-10T08:41:05;99221.16;;;29.91;50.07
8051;BME280;4068;42.158;24.732;2022-07-10T08:43:31;99197.13;;;29.39;51.48
8051;BME280;4068;42.158;24.732;2022-07-10T08:45:58;99205.44;;;29.27;52.46
8051;BME280;4068;42.158;24.732;2022-07-10T08:48:24;99233.00;;;29.25;54.31
8051;BME280;4068;42.158;24.732;2022-07-10T08:50:54;99228.06;;;29.05;54.87
8051;BME280;4068;42.158;24.732;2022-07-10T08:53:29;99231.69;;;28.89;54.05
8051;BME280;4068;42.158;24.732;2022-07-10T08:55:56;99204.09;;;28.68;53.38
8051;BME280;4068;42.158;24.732;2022-07-10T08:58:22;99239.50;;;28.46;54.19
8051;BME280;4068;42.158;24.732;2022-07-10T09:00:47;99206.69;;;28.24;53.74
8051;BME280;4068;42.158;24.732;2022-07-10T09:03:13;99231.22;;;28.24;54.15
8051;BME280;4068;42.158;24.732;2022-07-10T09:05:38;99231.47;;;28.22;55.67
8051;BME280;4068;42.158;24.732;2022-07-10T09:08:04;99228.84;;;28.28;56.86
8051;BME280;4068;42.158;24.732;2022-07-10T09:10:45;99235.34;;;28.27;56.39
8051;BME280;4068;42.158;24.732;2022-07-10T09:13:11;99227.00;;;28.16;56.91
8051;BME280;4068;42.158;24.732;2022-07-10T09:15:36;99240.69;;;28.04;55.87
8051;BME280;4068;42.158;24.732;2022-07-10T09:18:03;99244.03;;;27.78;57.09
8051;BME280;4068;42.158;24.732;2022-07-10T09:20:33;99247.75;;;27.60;58.20
8051;BME280;4068;42.158;24.732;2022-07-10T09:23:21;99226.56;;;27.09;58.16
8051;BME280;4068;42.158;24.732;2022-07-10T09:25:48;99212.88;;;26.80;59.67
8051;BME280;4068;42.158;24.732;2022-07-10T09:28:17;99245.63;;;26.97;61.04
8051;BME280;4068;42.158;24.732;2022-07-10T09:30:43;99253.69;;;26.92;61.07
8051;BME280;4068;42.158;24.732;2022-07-10T09:33:23;99243.22;;;26.53;61.08
8051;BME280;4068;42.158;24.732;2022-07-10T09:36:10;99228.34;;;26.32;61.55
8051;BME280;4068;42.158;24.732;2022-07-10T09:44:04;99234.75;;;26.50;62.00
8051;BME280;4068;42.158;24.732;2022-07-10T09:46:34;99233.22;;;26.54;61.70
8051;BME280;4068;42.158;24.732;2022-07-10T09:49:13;99239.94;;;26.63;61.00
8051;BME280;4068;42.158;24.732;2022-07-10T09:51:39;99239.97;;;26.75;59.73
8051;BME280;4068;42.158;24.732;2022-07-10T09:54:06;99245.28;;;26.82;59.75
8051;BME280;4068;42.158;24.732;2022-07-10T09:56:37;99239.00;;;27.05;58.43
8051;BME280;4068;42.158;24.732;2022-07-10T09:59:08;99246.38;;;27.33;57.99
8051;BME280;4068;42.158;24.732;2022-07-10T10:01:35;99242.75;;;27.40;57.68
8051;BME280;4068;42.158;24.732;2022-07-10T10:04:04;99242.75;;;27.40;57.73
8051;BME280;4068;42.158;24.732;2022-07-10T10:06:30;99245.22;;;27.70;58.45
8051;BME280;4068;42.158;24.732;2022-07-10T10:09:02;99241.19;;;28.01;57.80
8051;BME280;4068;42.158;24.732;2022-07-10T10:11:31;99223.59;;;28.26;56.89
8051;BME280;4068;42.158;24.732;2022-07-10T10:13:57;99232.69;;;28.66;55.98
8051;BME280;4068;42.158;24.732;2022-07-10T10:16:25;99233.47;;;29.00;55.62
8051;BME280;4068;42.158;24.732;2022-07-10T10:18:51;99224.72;;;29.42;54.49
8051;BME280;4068;42.158;24.732;2022-07-10T10:21:36;99224.41;;;29.88;53.71
8051;BME280;4068;42.158;24.732;2022-07-10T10:24:02;99220.16;;;30.68;50.22
8051;BME280;4068;42.158;24.732;2022-07-10T10:26:27;99234.38;;;31.07;50.12
8051;BME280;4068;42.158;24.732;2022-07-10T10:28:56;99232.78;;;31.27;48.53
8051;BME280;4068;42.158;24.732;2022-07-10T10:31:23;99217.75;;;31.35;47.95
8051;BME280;4068;42.158;24.732;2022-07-10T10:33:48;99219.22;;;31.58;46.72
8051;BME280;4068;42.158;24.732;2022-07-10T10:39:15;99208.56;;;31.61;46.77
8051;BME280;4068;42.158;24.732;2022-07-10T10:41:48;99214.34;;;31.86;44.63
8051;BME280;4068;42.158;24.732;2022-07-10T10:49:25;99207.19;;;31.64;44.71
8051;BME280;4068;42.158;24.732;2022-07-10T10:52:04;99205.19;;;31.39;43.95
8051;BME280;4068;42.158;24.732;2022-07-10T11:00:05;99196.59;;;31.20;43.26
8051;BME280;4068;42.158;24.732;2022-07-10T11:02:37;99166.19;;;31.06;42.22
8051;BME280;4068;42.158;24.732;2022-07-10T11:12:59;99175.41;;;30.99;42.48
8051;BME280;4068;42.158;24.732;2022-07-10T11:15:26;99173.91;;;30.66;43.51
8051;BME280;4068;42.158;24.732;2022-07-10T11:18:16;99169.59;;;30.80;43.79
8051;BME280;4068;42.158;24.732;2022-07-10T11:20:48;99131.16;;;31.03;42.27
8051;BME280;4068;42.158;24.732;2022-07-10T11:26:10;99150.69;;;30.74;44.63
8051;BME280;4068;42.158;24.732;2022-07-10T11:28:52;99151.25;;;30.76;43.10
8051;BME280;4068;42.158;24.732;2022-07-10T11:31:20;99149.16;;;30.45;43.41
8051;BME280;4068;42.158;24.732;2022-07-10T11:33:47;99150.63;;;30.63;43.37
8051;BME280;4068;42.158;24.732;2022-07-10T11:36:15;99152.56;;;30.68;42.85
8051;BME280;4068;42.158;24.732;2022-07-10T11:38:43;99149.25;;;30.61;41.88
8051;BME280;4068;42.158;24.732;2022-07-10T11:41:17;99136.59;;;30.50;42.34
8051;BME280;4068;42.158;24.732;2022-07-10T11:43:52;99137.00;;;30.69;41.74
8051;BME280;4068;42.158;24.732;2022-07-10T11:46:19;99142.00;;;30.92;41.65
8051;BME280;4068;42.158;24.732;2022-07-10T11:48:47;99119.84;;;30.89;41.25
8051;BME280;4068;42.158;24.732;2022-07-10T11:56:23;99128.00;;;31.83;42.86
8051;BME280;4068;42.158;24.732;2022-07-10T11:59:03;99129.91;;;32.29;39.66
8051;BME280;4068;42.158;24.732;2022-07-10T12:01:32;99135.34;;;32.44;38.63
8051;BME280;4068;42.158;24.732;2022-07-10T12:04:06;99123.63;;;31.87;39.70
8051;BME280;4068;42.158;24.732;2022-07-10T12:06:37;99137.03;;;31.58;40.55
8051;BME280;4068;42.158;24.732;2022-07-10T12:09:07;99118.34;;;31.39;41.46
8051;BME280;4068;42.158;24.732;2022-07-10T12:11:33;99098.63;;;31.47;40.73
8051;BME280;4068;42.158;24.732;2022-07-10T12:14:15;99121.16;;;31.60;39.94
8051;BME280;4068;42.158;24.732;2022-07-10T12:16:43;99119.69;;;31.26;40.98
8051;BME280;4068;42.158;24.732;2022-07-10T12:19:11;99114.03;;;31.59;42.02
8051;BME280;4068;42.158;24.732;2022-07-10T12:21:38;99093.72;;;31.65;40.06
8051;BME280;4068;42.158;24.732;2022-07-10T12:24:05;99101.97;;;31.80;39.37
8051;BME280;4068;42.158;24.732;2022-07-10T12:26:36;99111.81;;;31.76;39.43
8051;BME280;4068;42.158;24.732;2022-07-10T12:29:03;99112.88;;;31.44;40.17
8051;BME280;4068;42.158;24.732;2022-07-10T12:31:33;99115.25;;;31.05;40.10
8051;BME280;4068;42.158;24.732;2022-07-10T12:34:01;99115.75;;;30.91;40.85
8051;BME280;4068;42.158;24.732;2022-07-10T12:39:17;99093.06;;;31.01;40.79
8051;BME280;4068;42.158;24.732;2022-07-10T12:44:42;99089.91;;;31.76;40.09
8051;BME280;4068;42.158;24.732;2022-07-10T12:47:09;99097.00;;;32.03;39.60
8051;BME280;4068;42.158;24.732;2022-07-10T12:55:05;99092.56;;;32.48;37.10
8051;BME280;4068;42.158;24.732;2022-07-10T12:57:30;99091.28;;;31.84;38.46
8051;BME280;4068;42.158;24.732;2022-07-10T13:00:03;99091.81;;;31.76;39.41
8051;BME280;4068;42.158;24.732;2022-07-10T13:02:29;99059.47;;;31.98;38.85
8051;BME280;4068;42.158;24.732;2022-07-10T13:04:56;99080.56;;;32.18;39.12
8051;BME280;4068;42.158;24.732;2022-07-10T13:07:32;99078.88;;;32.28;37.59
8051;BME280;4068;42.158;24.732;2022-07-10T13:09:59;99077.72;;;32.49;39.11
8051;BME280;4068;42.158;24.732;2022-07-10T13:12:26;99075.72;;;32.76;36.98
8051;BME280;4068;42.158;24.732;2022-07-10T13:14:51;99084.25;;;32.69;37.93
8051;BME280;4068;42.158;24.732;2022-07-10T13:17:17;99070.78;;;32.67;36.42
8051;BME280;4068;42.158;24.732;2022-07-10T13:19:42;99074.94;;;32.60;36.04
8051;BME280;4068;42.158;24.732;2022-07-10T13:22:08;99072.81;;;32.36;35.83
8051;BME280;4068;42.158;24.732;2022-07-10T13:24:33;99048.41;;;32.40;36.03
8051;BME280;4068;42.158;24.732;2022-07-10T13:26:58;99063.97;;;32.60;36.67
8051;BME280;4068;42.158;24.732;2022-07-10T13:29:24;99064.19;;;32.74;37.21
8051;BME280;4068;42.158;24.732;2022-07-10T13:31:49;99059.59;;;32.59;37.62
8051;BME280;4068;42.158;24.732;2022-07-10T13:34:15;99058.22;;;32.56;37.31
8051;BME280;4068;42.158;24.732;2022-07-10T13:36:40;99036.94;;;32.27;36.73
8051;BME280;4068;42.158;24.732;2022-07-10T13:39:06;99064.59;;;32.36;36.39
8051;BME280;4068;42.158;24.732;2022-07-10T13:41:31;99069.47;;;32.49;37.03
8051;BME280;4068;42.158;24.732;2022-07-10T13:43:57;99061.75;;;32.62;35.89
8051;BME280;4068;42.158;24.732;2022-07-10T13:46:22;99061.66;;;32.17;36.66
8051;BME280;4068;42.158;24.732;2022-07-10T13:48:47;99060.19;;;32.40;35.87
8051;BME280;4068;42.158;24.732;2022-07-10T13:51:13;99013.50;;;32.56;36.81
8051;BME280;4068;42.158;24.732;2022-07-10T13:53:38;99058.75;;;32.68;37.17
8051;BME280;4068;42.158;24.732;2022-07-10T13:56:06;99056.38;;;32.36;37.53
8051;BME280;4068;42.158;24.732;2022-07-10T13:58:34;99056.25;;;32.72;37.64
8051;BME280;4068;42.158;24.732;2022-07-10T14:00:59;99052.66;;;32.66;36.23